Time;durP1;ratioP1;P1;durP2;ratioP2;P2;SDS_P1;SDS_P2;PMS_P1;PMS_P2;Temp;Humidity;BMP_temperature;BMP_pressure;BME280_temperature;BME280_humidity;BME280_pressure;Samples;Min_cycle;Max_cycle;Signal;HPM_P1;HPM_P2
2023/04/04 00:01:01;;;;;;;3.47;2.53;;;;;;;1.58;69.67;102342.19;5034365;28;20207;-83
2023/04/04 00:03:31;;;;;;;3.73;2.33;;;;;;;1.60;68.97;102329.38;5034577;28;20718;-83
2023/04/04 00:06:07;;;;;;;7.20;2.93;;;;;;;1.57;69.56;102322.41;5034012;28;20232;-81
2023/04/04 00:08:35;;;;;;;3.23;2.60;;;;;;;1.55;68.82;102325.72;5034541;28;20577;-82
2023/04/04 00:11:05;;;;;;;2.97;2.67;;;;;;;1.67;68.71;102322.88;5034061;28;20277;-83
2023/04/04 00:13:33;;;;;;;5.53;2.50;;;;;;;1.61;68.97;102330.28;5034777;28;20219;-83
2023/04/04 00:15:59;;;;;;;3.13;2.27;;;;;;;1.50;69.31;102330.63;5034317;28;20232;-83
2023/04/04 00:18:26;;;;;;;3.20;2.27;;;;;;;1.48;69.53;102318.50;5034570;28;20211;-81
2023/04/04 00:20:56;;;;;;;2.60;2.30;;;;;;;1.49;70.04;102313.44;5034435;28;20247;-82
2023/04/04 00:23:25;;;;;;;2.40;2.10;;;;;;;1.52;71.18;102308.44;5034627;28;20211;-82
2023/04/04 00:25:57;;;;;;;2.70;2.27;;;;;;;1.50;71.07;102296.31;5034119;28;20266;-83
2023/04/04 00:28:27;;;;;;;4.10;2.63;;;;;;;1.54;70.99;102288.78;5034551;28;20533;-82
2023/04/04 00:30:59;;;;;;;4.83;2.43;;;;;;;1.55;70.04;102277.72;5034458;28;20206;-83
2023/04/04 00:33:31;;;;;;;2.87;2.27;;;;;;;1.59;69.76;102287.34;5034419;28;20248;-82
2023/04/04 00:36:04;;;;;;;3.10;2.27;;;;;;;1.65;68.99;102297.03;5034564;28;20259;-82
2023/04/04 00:38:36;;;;;;;2.67;2.47;;;;;;;1.58;68.66;102318.13;5034314;28;20226;-82
2023/04/04 00:41:06;;;;;;;4.47;2.70;;;;;;;1.61;68.98;102315.72;5034712;28;20196;-82
2023/04/04 00:43:41;;;;;;;2.67;2.33;;;;;;;1.51;68.70;102334.13;5034623;28;20214;-82
2023/04/04 00:46:09;;;;;;;3.20;2.50;;;;;;;1.45;69.26;102344.06;5034175;28;20301;-83
2023/04/04 00:48:43;;;;;;;2.47;2.23;;;;;;;1.42;69.07;102347.41;5014992;28;20211;-82
2023/04/04 00:51:10;;;;;;;3.57;2.60;;;;;;;1.36;69.45;102337.69;5014880;28;20234;-83
2023/04/04 00:53:41;;;;;;;2.73;2.53;;;;;;;1.34;70.37;102338.41;5015205;28;20217;-82
2023/04/04 00:56:13;;;;;;;2.30;2.07;;;;;;;1.33;70.52;102321.22;5014300;28;20279;-82
2023/04/04 00:58:46;;;;;;;2.53;2.33;;;;;;;1.25;70.95;102322.50;5015184;28;20194;-82
2023/04/04 01:01:16;;;;;;;2.97;2.23;;;;;;;1.23;70.36;102300.97;5014882;28;20188;-80
2023/04/04 01:03:45;;;;;;;2.63;2.43;;;;;;;1.28;70.79;102291.81;5015315;28;20316;-83
2023/04/04 01:06:17;;;;;;;2.60;2.40;;;;;;;1.18;71.02;102286.22;5018724;28;20244;-83
2023/04/04 01:08:53;;;;;;;6.27;2.80;;;;;;;1.25;70.16;102278.78;5018745;28;20703;-83
2023/04/04 01:11:21;;;;;;;2.60;2.40;;;;;;;1.23;70.69;102276.16;5019125;28;20626;-83
2023/04/04 01:13:50;;;;;;;2.83;2.33;;;;;;;1.12;72.06;102272.19;5018961;28;20675;-82
2023/04/04 01:16:20;;;;;;;2.90;2.60;;;;;;;1.23;72.46;102253.00;5036538;28;20228;-83
2023/04/04 01:18:50;;;;;;;4.00;2.47;;;;;;;1.16;71.94;102248.38;5039636;28;20689;-84
2023/04/04 01:21:20;;;;;;;3.10;2.70;;;;;;;1.11;72.25;102236.97;5041059;28;20240;-82
2023/04/04 01:23:58;;;;;;;3.43;2.70;;;;;;;1.14;72.34;102232.84;5037322;28;20216;-81
2023/04/04 01:26:28;;;;;;;3.00;2.60;;;;;;;1.12;72.44;102228.47;5037170;28;20608;-82
2023/04/04 01:28:58;;;;;;;4.07;2.67;;;;;;;1.02;72.58;102231.38;5037711;28;20200;-82
2023/04/04 01:31:34;;;;;;;3.33;2.43;;;;;;;1.02;71.85;102224.56;5038017;28;20701;-83
2023/04/04 01:34:10;;;;;;;2.97;2.77;;;;;;;0.95;72.69;102231.09;5036683;28;20262;-81
2023/04/04 01:36:47;;;;;;;5.03;2.60;;;;;;;0.96;73.17;102219.13;5036888;28;20285;-84
2023/04/04 01:39:22;;;;;;;3.07;2.60;;;;;;;1.01;73.84;102202.19;5037427;28;20199;-81
2023/04/04 01:41:51;;;;;;;3.40;2.43;;;;;;;0.86;73.48;102192.06;5037508;28;20211;-81
2023/04/04 01:44:23;;;;;;;3.27;2.97;;;;;;;0.84;73.16;102185.97;5036820;28;20662;-81
2023/04/04 01:46:53;;;;;;;4.23;2.60;;;;;;;0.87;73.12;102170.69;5042151;28;20227;-82
2023/04/04 01:49:24;;;;;;;3.43;2.40;;;;;;;0.82;74.21;102167.03;5057176;28;20570;-82
2023/04/04 01:51:54;;;;;;;3.03;2.73;;;;;;;0.75;74.41;102157.25;5057308;28;20211;-83
2023/04/04 01:54:21;;;;;;;3.43;2.53;;;;;;;0.78;75.41;102139.41;5056676;28;20245;-82
2023/04/04 01:56:47;;;;;;;3.40;2.97;;;;;;;0.71;74.85;102116.78;5056892;28;20226;-84
2023/04/04 01:59:15;;;;;;;4.73;2.77;;;;;;;0.75;74.48;102110.97;5057155;28;20202;-82
2023/04/04 02:01:45;;;;;;;4.00;2.83;;;;;;;0.74;74.43;102115.25;5057283;28;20209;-84
2023/04/04 02:04:13;;;;;;;3.43;3.13;;;;;;;0.74;73.94;102119.50;5055974;28;20218;-81
2023/04/04 02:06:39;;;;;;;5.17;3.07;;;;;;;0.71;73.74;102129.63;5056371;28;20231;-82
2023/04/04 02:09:06;;;;;;;3.77;3.47;;;;;;;0.57;74.26;102134.97;5056762;28;20280;-82
2023/04/04 02:11:36;;;;;;;4.17;2.97;;;;;;;0.67;74.54;102125.16;5056125;28;20286;-82
2023/04/04 02:14:08;;;;;;;3.23;2.87;;;;;;;0.60;75.28;102118.84;5056501;28;20253;-82
2023/04/04 02:16:38;;;;;;;2.97;2.67;;;;;;;0.49;74.97;102110.59;5027170;28;20266;-81
2023/04/04 02:19:07;;;;;;;4.07;3.30;;;;;;;0.44;74.78;102101.78;5036555;28;20244;-80
2023/04/04 02:21:34;;;;;;;3.17;2.80;;;;;;;0.52;74.57;102097.91;5036081;28;20245;-80
2023/04/04 02:24:00;;;;;;;6.00;3.77;;;;;;;0.63;74.25;102108.69;5036278;28;20211;-83
2023/04/04 02:26:29;;;;;;;3.27;2.67;;;;;;;0.52;73.68;102110.75;5035818;28;20266;-83
2023/04/04 02:28:58;;;;;;;3.33;2.97;;;;;;;0.47;73.71;102119.03;5036065;28;20231;-83
2023/04/04 02:31:29;;;;;;;3.90;3.50;;;;;;;0.49;73.90;102122.56;5036540;28;20254;-83
2023/04/04 02:33:56;;;;;;;3.83;3.33;;;;;;;0.48;74.52;102121.69;5035654;28;20214;-82
2023/04/04 02:36:23;;;;;;;3.43;3.07;;;;;;;0.39;75.55;102116.09;5036178;28;20624;-83
2023/04/04 02:38:52;;;;;;;3.47;3.10;;;;;;;0.32;76.68;102094.38;5036412;28;20203;-82
2023/04/04 02:41:19;;;;;;;3.27;2.97;;;;;;;0.33;77.20;102061.84;5036199;28;20206;-83
2023/04/04 02:43:47;;;;;;;3.40;3.10;;;;;;;0.26;75.79;102054.63;5035722;28;20323;-82
2023/04/04 02:46:13;;;;;;;4.57;3.37;;;;;;;0.24;75.82;102052.00;5035646;28;20303;-82
2023/04/04 02:48:39;;;;;;;7.43;3.00;;;;;;;0.20;75.87;102052.66;5036113;28;20678;-82
2023/04/04 02:51:10;;;;;;;3.40;2.60;;;;;;;0.28;76.66;102042.75;5035934;28;20235;-81
2023/04/04 02:53:39;;;;;;;4.73;2.97;;;;;;;0.14;76.43;102037.84;5035469;28;20222;-82
2023/04/04 02:56:06;;;;;;;3.10;2.80;;;;;;;0.14;76.23;102027.56;5035489;28;20286;-83
2023/04/04 02:58:32;;;;;;;3.50;3.07;;;;;;;0.23;76.26;102022.00;5036235;28;20269;-82
2023/04/04 03:01:01;;;;;;;4.10;3.37;;;;;;;0.25;76.89;102012.69;5035003;28;20209;-80
2023/04/04 03:03:31;;;;;;;3.43;2.70;;;;;;;0.24;77.61;102003.22;5034971;28;20212;-85
2023/04/04 03:06:04;;;;;;;3.87;3.43;;;;;;;0.24;77.79;101990.38;5035425;28;20232;-84
2023/04/04 03:08:35;;;;;;;4.40;3.40;;;;;;;0.23;78.36;101977.47;5036333;28;20233;-83
2023/04/04 03:11:06;;;;;;;7.23;3.23;;;;;;;0.20;78.07;101965.38;5036573;28;20220;-82
2023/04/04 03:13:38;;;;;;;3.90;3.40;;;;;;;0.18;76.98;101965.28;5036662;28;20180;-82
2023/04/04 03:16:10;;;;;;;6.40;3.23;;;;;;;0.16;76.38;101971.16;5035514;28;20225;-80
2023/04/04 03:18:40;;;;;;;4.50;3.40;;;;;;;0.26;76.90;101970.78;5036158;28;20878;-82
2023/04/04 03:21:11;;;;;;;4.07;3.67;;;;;;;0.28;76.68;101971.75;5036268;28;20247;-82
2023/04/04 03:23:41;;;;;;;4.47;4.07;;;;;;;0.26;76.77;101983.63;5035721;28;20585;-83
2023/04/04 03:26:09;;;;;;;4.00;3.50;;;;;;;0.30;76.91;101972.69;5035472;28;20231;-81
2023/04/04 03:28:35;;;;;;;3.23;2.50;;;;;;;0.30;77.39;101985.53;5035490;28;20213;-83
2023/04/04 03:31:05;;;;;;;4.37;2.97;;;;;;;0.22;77.96;101968.00;5035887;28;20338;-83
2023/04/04 03:33:35;;;;;;;4.23;1.87;;;;;;;0.26;76.23;101969.88;5035163;28;20560;-82
2023/04/04 03:36:03;;;;;;;2.83;1.77;;;;;;;0.30;74.14;101992.38;5035395;28;20224;-83
2023/04/04 03:38:32;;;;;;;3.63;1.70;;;;;;;0.37;73.14;102028.66;5035435;28;20204;-81
2023/04/04 03:41:09;;;;;;;4.90;1.63;;;;;;;0.37;74.54;102061.19;5035512;28;20241;-82
2023/04/04 03:43:36;;;;;;;1.90;1.77;;;;;;;0.22;75.70;102063.91;5035536;28;20228;-81
2023/04/04 03:46:07;;;;;;;4.30;3.27;;;;;;;0.25;75.31;102050.31;5033699;28;20320;-84
2023/04/04 03:48:35;;;;;;;4.70;2.40;;;;;;;0.32;75.39;102043.00;5035134;28;20689;-81
2023/04/04 03:51:03;;;;;;;4.93;2.80;;;;;;;0.33;74.80;102047.31;5035529;28;20215;-82
2023/04/04 03:53:29;;;;;;;2.77;2.30;;;;;;;0.26;75.61;102047.84;5035261;28;20210;-82
2023/04/04 03:56:02;;;;;;;5.77;2.27;;;;;;;0.14;75.75;102045.53;5034992;28;20252;-82
2023/04/04 03:58:32;;;;;;;4.33;2.10;;;;;;;0.06;75.46;102046.84;5036147;28;20184;-83
2023/04/04 04:01:02;;;;;;;2.53;2.03;;;;;;;0.13;75.04;102045.47;5035139;28;20239;-83
2023/04/04 04:03:33;;;;;;;2.67;2.07;;;;;;;0.04;75.02;102057.81;5035518;28;20196;-82
2023/04/04 04:06:01;;;;;;;2.60;1.90;;;;;;;-0.08;74.32;102066.69;5035061;28;20780;-82
2023/04/04 04:08:27;;;;;;;2.70;1.63;;;;;;;-0.01;74.52;102073.88;5035333;28;20280;-84
2023/04/04 04:10:54;;;;;;;3.60;1.93;;;;;;;0.03;75.15;102068.91;5034917;28;20208;-84
2023/04/04 04:13:22;;;;;;;1.67;1.57;;;;;;;-0.03;76.34;102059.22;5034840;28;20210;-83
2023/04/04 04:15:54;;;;;;;3.57;1.67;;;;;;;-0.10;75.82;102042.63;5037075;28;20676;-85
2023/04/04 04:18:29;;;;;;;2.83;1.87;;;;;;;-0.03;76.08;102041.25;5033788;28;20574;-85
2023/04/04 04:21:01;;;;;;;3.03;1.97;;;;;;;0.01;75.86;102039.72;5035253;28;20226;-81
2023/04/04 04:23:27;;;;;;;2.50;1.70;;;;;;;-0.02;76.21;102040.44;5034500;28;20277;-85
2023/04/04 04:25:57;;;;;;;2.03;1.93;;;;;;;0.03;75.69;102036.41;5035869;28;20267;-84
2023/04/04 04:28:23;;;;;;;2.60;1.70;;;;;;;0.04;75.96;102038.19;5035939;28;20209;-84
2023/04/04 04:30:51;;;;;;;2.50;2.00;;;;;;;0.01;74.37;102038.03;5035761;28;20217;-84
2023/04/04 04:33:18;;;;;;;5.30;1.63;;;;;;;0.00;75.07;102064.53;5035079;28;20310;-84
2023/04/04 04:35:45;;;;;;;2.40;2.00;;;;;;;-0.03;75.46;102065.22;5035207;28;20238;-82
2023/04/04 04:38:12;;;;;;;1.90;1.70;;;;;;;-0.09;74.82;102070.06;5034945;28;20235;-83
2023/04/04 04:40:38;;;;;;;2.00;1.90;;;;;;;-0.19;75.87;102077.22;5039551;28;20200;-79
2023/04/04 04:43:08;;;;;;;2.50;1.87;;;;;;;-0.16;76.39;102055.13;5039436;28;20230;-81
2023/04/04 04:45:41;;;;;;;3.93;2.00;;;;;;;-0.08;76.13;102048.72;5043641;28;20716;-82
2023/04/04 04:48:08;;;;;;;2.83;2.30;;;;;;;-0.01;75.88;102042.22;5019826;28;20205;-82
2023/04/04 04:50:35;;;;;;;3.93;2.23;;;;;;;-0.27;75.84;102056.28;5019246;28;20681;-84
2023/04/04 04:53:01;;;;;;;4.27;2.23;;;;;;;-0.29;76.38;102052.78;5018500;28;20298;-83
2023/04/04 04:55:29;;;;;;;1.93;1.73;;;;;;;-0.26;76.63;102037.50;5019961;28;20253;-84
2023/04/04 04:57:57;;;;;;;2.03;1.80;;;;;;;-0.21;76.30;102030.94;5020670;28;20201;-84
2023/04/04 05:00:24;;;;;;;2.27;1.80;;;;;;;-0.25;76.98;102029.03;5020634;28;20566;-85
2023/04/04 05:02:50;;;;;;;4.27;2.53;;;;;;;-0.20;77.42;102012.16;5020616;28;20213;-83
2023/04/04 05:05:19;;;;;;;3.10;2.20;;;;;;;-0.14;76.02;102012.50;5020635;28;20232;-82
2023/04/04 05:07:52;;;;;;;2.90;2.20;;;;;;;-0.18;75.57;102035.34;5019705;28;20233;-82
2023/04/04 05:10:22;;;;;;;4.17;2.00;;;;;;;-0.21;76.65;102039.50;5020024;28;20234;-83
2023/04/04 05:12:51;;;;;;;2.40;2.00;;;;;;;-0.20;76.54;102030.13;5020600;28;20252;-81
2023/04/04 05:15:27;;;;;;;;;;;;;;;;;;;;;
2023/04/04 05:17:56;;;;;;;2.33;1.60;;;;;;;-0.15;76.71;102033.81;5039446;28;20292;-84
2023/04/04 05:20:26;;;;;;;1.83;1.60;;;;;;;-0.11;77.56;102033.16;5040108;28;20212;-85
2023/04/04 05:23:00;;;;;;;1.87;1.67;;;;;;;-0.22;77.09;102035.19;5039603;28;20584;-82
2023/04/04 05:25:28;;;;;;;2.00;1.70;;;;;;;-0.13;77.79;102039.91;5040052;28;20243;-83
2023/04/04 05:27:59;;;;;;;2.30;1.53;;;;;;;-0.04;76.68;102026.63;5040544;28;20219;-85
2023/04/04 05:30:26;;;;;;;2.13;1.93;;;;;;;-0.10;77.12;102040.06;5040667;28;20624;-84
2023/04/04 05:32:52;;;;;;;2.47;1.77;;;;;;;-0.16;77.14;102034.59;5040853;28;20744;-83
2023/04/04 05:35:19;;;;;;;2.77;1.90;;;;;;;-0.22;76.87;102036.84;5041599;28;20259;-82
2023/04/04 05:37:47;;;;;;;4.40;2.23;;;;;;;-0.25;77.19;102042.72;5037873;28;20209;-82
2023/04/04 05:40:14;;;;;;;3.67;1.90;;;;;;;-0.17;77.14;102040.56;5037964;28;20286;-81
2023/04/04 05:42:41;;;;;;;2.47;1.83;;;;;;;-0.15;76.90;102041.50;5038229;28;20212;-82
2023/04/04 05:45:10;;;;;;;2.03;1.80;;;;;;;-0.18;77.08;102043.91;5036103;28;20283;-83
2023/04/04 05:47:43;;;;;;;2.87;1.70;;;;;;;-0.12;75.75;102057.09;5050641;28;20251;-82
2023/04/04 05:50:13;;;;;;;5.83;2.60;;;;;;;-0.10;75.86;102072.53;5056831;28;20221;-82
2023/04/04 05:52:41;;;;;;;4.97;2.97;;;;;;;-0.10;75.10;102093.06;5057413;28;20210;-83
2023/04/04 05:55:10;;;;;;;5.43;3.20;;;;;;;-0.01;75.40;102096.97;5058119;28;20233;-83
2023/04/04 05:57:36;;;;;;;5.50;3.53;;;;;;;0.15;73.97;102102.91;5057273;28;20209;-82
2023/04/04 06:00:04;;;;;;;5.13;3.30;;;;;;;0.24;73.95;102120.44;5048068;28;20217;-79
2023/04/04 06:02:31;;;;;;;7.37;3.80;;;;;;;0.26;73.27;102142.84;5027677;28;20244;-82
2023/04/04 06:04:57;;;;;;;9.23;7.37;;;;;;;0.30;73.26;102164.44;5036282;28;20268;-82
2023/04/04 06:07:24;;;;;;;6.47;5.10;;;;;;;0.30;73.68;102174.72;5037084;28;20224;-82
2023/04/04 06:09:50;;;;;;;4.80;4.20;;;;;;;0.35;74.35;102179.25;5037273;28;20200;-82
2023/04/04 06:12:18;;;;;;;4.57;3.97;;;;;;;0.36;74.37;102173.34;5036488;28;20215;-79
2023/04/04 06:14:44;;;;;;;4.63;4.23;;;;;;;0.41;74.54;102176.13;5037348;28;20211;-80
2023/04/04 06:17:10;;;;;;;6.27;4.60;;;;;;;0.49;73.84;102172.25;5037625;28;20208;-80
2023/04/04 06:19:37;;;;;;;4.47;4.03;;;;;;;0.55;73.17;102176.81;5037000;28;20209;-78
2023/04/04 06:22:03;;;;;;;5.60;5.00;;;;;;;0.59;73.30;102192.47;5036878;28;20207;-81
2023/04/04 06:24:29;;;;;;;4.77;3.97;;;;;;;0.63;73.34;102201.19;5037123;28;20207;-81
2023/04/04 06:26:55;;;;;;;4.87;4.37;;;;;;;0.59;73.69;102215.59;5035859;28;20264;-81
2023/04/04 06:29:24;;;;;;;3.93;3.50;;;;;;;0.63;73.45;102203.78;5036788;28;20823;-81
2023/04/04 06:31:51;;;;;;;5.03;3.70;;;;;;;0.69;71.96;102216.91;5036558;28;20306;-80
2023/04/04 06:34:17;;;;;;;6.23;3.47;;;;;;;0.75;72.17;102232.69;5038024;28;20240;-80
2023/04/04 06:36:43;;;;;;;3.93;3.23;;;;;;;0.72;72.43;102247.94;5037020;28;20709;-82
2023/04/04 06:39:10;;;;;;;3.90;3.60;;;;;;;0.76;72.75;102254.13;5037274;28;20211;-81
2023/04/04 06:41:36;;;;;;;3.53;3.23;;;;;;;0.77;72.70;102253.28;5035751;28;20211;-80
2023/04/04 06:44:02;;;;;;;4.00;3.47;;;;;;;0.82;72.51;102257.00;5035084;28;20250;-82
2023/04/04 06:46:32;;;;;;;3.57;3.00;;;;;;;0.87;72.07;102258.09;5039978;28;20269;-81
2023/04/04 06:48:58;;;;;;;7.37;3.57;;;;;;;0.89;71.03;102264.22;5016815;28;20217;-80
2023/04/04 06:51:25;;;;;;;4.37;3.33;;;;;;;0.88;72.11;102285.56;5016604;28;20248;-83
2023/04/04 06:53:51;;;;;;;3.23;2.93;;;;;;;0.94;71.50;102285.88;5021951;28;20299;-81
2023/04/04 06:56:17;;;;;;;3.33;3.03;;;;;;;0.94;72.57;102290.16;5024739;28;20254;-83
2023/04/04 06:58:44;;;;;;;4.07;3.67;;;;;;;1.01;71.39;102276.75;5024624;28;20256;-82
2023/04/04 07:01:10;;;;;;;6.07;4.00;;;;;;;1.07;71.67;102286.47;5024272;28;20211;-82
2023/04/04 07:03:38;;;;;;;8.87;3.90;;;;;;;1.09;71.81;102288.34;5025118;28;20199;-83
2023/04/04 07:06:05;;;;;;;4.77;3.97;;;;;;;1.13;72.19;102292.84;5026939;28;20221;-82
2023/04/04 07:08:32;;;;;;;4.87;4.33;;;;;;;1.20;72.54;102283.72;5028196;28;20226;-84
2023/04/04 07:10:59;;;;;;;3.80;3.43;;;;;;;1.25;71.57;102279.69;5028475;28;20246;-83
2023/04/04 07:13:25;;;;;;;4.37;3.80;;;;;;;1.32;71.46;102281.75;5027919;28;20287;-81
2023/04/04 07:15:52;;;;;;;5.73;3.40;;;;;;;1.38;71.84;102287.19;5025859;28;20316;-82
2023/04/04 07:18:18;;;;;;;4.70;4.20;;;;;;;1.47;71.40;102286.75;5025021;28;20231;-81
2023/04/04 07:20:47;;;;;;;4.97;4.33;;;;;;;1.55;71.61;102298.28;5021849;28;20255;-80
2023/04/04 07:23:14;;;;;;;4.50;3.90;;;;;;;1.63;71.01;102295.22;5021645;28;20569;-80
2023/04/04 07:25:40;;;;;;;4.77;2.70;;;;;;;1.70;70.74;102315.28;5024520;28;20230;-82
2023/04/04 07:28:07;;;;;;;11.20;9.23;;;;;;;1.71;70.63;102330.78;5022353;28;20228;-83
2023/04/04 07:30:33;;;;;;;8.77;6.97;;;;;;;1.67;72.55;102321.16;5024049;28;20266;-81
2023/04/04 07:33:00;;;;;;;5.27;4.77;;;;;;;1.73;72.13;102303.44;5022523;28;20574;-81
2023/04/04 07:35:27;;;;;;;8.53;5.97;;;;;;;1.79;72.50;102298.56;5023239;28;20250;-81
2023/04/04 07:37:55;;;;;;;5.57;4.20;;;;;;;1.87;72.24;102283.47;5023398;28;20204;-81
2023/04/04 07:40:21;;;;;;;3.47;3.13;;;;;;;1.98;72.07;102278.81;5024656;28;20201;-81
2023/04/04 07:42:49;;;;;;;4.23;3.53;;;;;;;2.04;71.57;102286.81;5022279;28;20584;-81
2023/04/04 07:45:16;;;;;;;4.77;3.13;;;;;;;2.10;72.24;102292.28;5022232;28;20229;-82
2023/04/04 07:47:43;;;;;;;6.37;4.20;;;;;;;2.24;71.19;102279.13;5025629;28;20220;-82
2023/04/04 07:50:10;;;;;;;5.07;3.10;;;;;;;2.27;69.33;102303.31;5021664;28;20300;-80
2023/04/04 07:52:36;;;;;;;7.43;5.40;;;;;;;2.27;69.82;102323.94;5024397;28;20237;-82
2023/04/04 07:55:06;;;;;;;4.40;4.00;;;;;;;2.33;69.42;102331.94;5024051;28;20220;-82
2023/04/04 07:57:32;;;;;;;5.03;4.07;;;;;;;2.38;69.01;102340.78;5022400;28;20205;-82
2023/04/04 08:00:20;;;;;;;4.87;2.00;;;;;;;2.43;68.72;102365.88;5019766;28;20198;-82
2023/04/04 08:02:47;;;;;;;8.70;3.17;;;;;;;2.45;68.40;102374.56;5022119;28;20285;-82
2023/04/04 08:05:13;;;;;;;4.43;2.40;;;;;;;2.44;68.03;102395.97;5021926;28;20705;-82
2023/04/04 08:07:40;;;;;;;3.97;2.30;;;;;;;2.44;68.34;102409.78;5023263;28;20261;-82
2023/04/04 08:10:09;;;;;;;3.43;2.73;;;;;;;2.50;69.38;102404.03;5023239;28;20205;-84
2023/04/04 08:12:35;;;;;;;8.67;2.80;;;;;;;2.61;68.32;102401.91;5023359;28;20202;-81
2023/04/04 08:15:02;;;;;;;7.47;2.63;;;;;;;2.65;68.07;102396.09;5020683;28;20713;-80
2023/04/04 08:17:28;;;;;;;3.67;2.70;;;;;;;2.68;68.03;102402.25;5023353;28;20581;-82
2023/04/04 08:19:54;;;;;;;2.63;2.27;;;;;;;2.62;68.59;102425.19;5021300;28;20203;-79
2023/04/04 08:22:21;;;;;;;3.00;2.37;;;;;;;2.67;67.91;102412.50;5019988;28;20694;-82
2023/04/04 08:24:47;;;;;;;3.33;2.77;;;;;;;2.73;68.07;102423.09;5022279;28;20241;-81
2023/04/04 08:27:15;;;;;;;4.73;2.17;;;;;;;2.73;67.87;102429.13;5024189;28;20764;-83
2023/04/04 08:29:41;;;;;;;1.83;1.73;;;;;;;2.85;67.05;102426.22;5021040;28;20231;-80
2023/04/04 08:32:08;;;;;;;2.30;2.10;;;;;;;2.90;66.46;102435.06;5023277;28;20234;-82
2023/04/04 08:34:34;;;;;;;3.60;1.50;;;;;;;2.88;65.34;102443.53;5024411;28;20349;-83
2023/04/04 08:37:01;;;;;;;4.03;2.60;;;;;;;2.91;66.25;102467.75;5024569;28;20210;-82
2023/04/04 08:39:27;;;;;;;2.70;1.80;;;;;;;3.01;65.45;102452.69;5024742;28;20201;-84
2023/04/04 08:42:01;;;;;;;3.43;1.63;;;;;;;3.06;64.42;102477.03;5023867;28;20261;-82
2023/04/04 08:44:30;;;;;;;2.63;1.70;;;;;;;3.04;62.47;102509.59;5024065;28;20208;-84
2023/04/04 08:46:59;;;;;;;2.67;2.37;;;;;;;3.13;62.71;102548.72;5024604;28;20658;-83
2023/04/04 08:49:27;;;;;;;3.10;1.40;;;;;;;3.07;63.29;102558.75;5025689;28;20226;-81
2023/04/04 08:51:56;;;;;;;3.40;1.80;;;;;;;3.19;62.58;102579.94;5025132;28;20202;-82
2023/04/04 08:54:25;;;;;;;3.23;1.70;;;;;;;3.25;62.96;102600.00;5023748;28;20624;-82
2023/04/04 08:56:51;;;;;;;3.03;1.40;;;;;;;3.38;62.28;102592.00;5021757;28;20256;-82
2023/04/04 08:59:17;;;;;;;3.33;1.50;;;;;;;3.46;60.65;102616.47;5024049;28;20198;-84
2023/04/04 09:01:45;;;;;;;1.40;1.20;;;;;;;3.56;59.97;102635.84;5022446;28;20233;-83
2023/04/04 09:04:11;;;;;;;3.30;1.60;;;;;;;3.61;59.44;102661.88;5022176;28;20221;-81
2023/04/04 09:06:38;;;;;;;3.27;1.30;;;;;;;3.66;58.77;102697.44;5022357;28;20269;-80
2023/04/04 09:09:06;;;;;;;2.60;1.30;;;;;;;3.74;58.44;102718.44;5023606;28;20253;-80
2023/04/04 09:11:33;;;;;;;3.13;1.87;;;;;;;3.79;58.69;102755.72;5024379;28;20203;-81
2023/04/04 09:14:03;;;;;;;1.53;1.30;;;;;;;3.81;57.46;102760.97;5022155;28;20222;-84
2023/04/04 09:16:30;;;;;;;1.73;1.40;;;;;;;3.82;57.70;102792.00;5022059;28;20234;-82
2023/04/04 09:18:58;;;;;;;1.70;0.93;;;;;;;3.76;58.11;102805.50;5021540;28;20231;-83
2023/04/04 09:21:25;;;;;;;2.73;1.30;;;;;;;3.71;57.53;102809.59;5022095;28;20226;-80
2023/04/04 09:23:58;;;;;;;2.03;1.20;;;;;;;3.74;57.56;102809.72;5022528;28;20203;-82
2023/04/04 09:26:25;;;;;;;2.37;1.20;;;;;;;3.75;56.24;102826.13;5028104;28;20227;-82
2023/04/04 09:28:52;;;;;;;3.10;1.20;;;;;;;3.68;56.77;102857.63;5025534;28;20292;-82
2023/04/04 09:31:19;;;;;;;2.07;0.93;;;;;;;3.72;56.90;102859.56;5029894;28;20199;-82
2023/04/04 09:33:48;;;;;;;2.63;1.50;;;;;;;3.82;56.40;102851.44;5027781;28;20200;-82
2023/04/04 09:36:16;;;;;;;1.83;1.10;;;;;;;3.84;56.28;102861.84;5025107;28;20219;-81
2023/04/04 09:38:44;;;;;;;3.00;1.40;;;;;;;3.85;58.18;102885.16;5027616;28;20198;-84
2023/04/04 09:41:13;;;;;;;1.60;1.20;;;;;;;3.83;56.69;102852.34;5027429;28;20203;-82
2023/04/04 09:43:40;;;;;;;1.50;1.30;;;;;;;3.76;57.19;102874.38;5028542;28;20199;-81
2023/04/04 09:46:06;;;;;;;1.93;1.20;;;;;;;3.78;57.65;102854.69;5028347;28;20229;-81
2023/04/04 09:48:35;;;;;;;1.60;1.30;;;;;;;3.84;56.89;102851.50;5028047;28;20237;-82
2023/04/04 09:51:05;;;;;;;2.03;1.43;;;;;;;3.96;55.63;102852.09;5026313;28;20293;-81
2023/04/04 09:53:36;;;;;;;2.27;1.30;;;;;;;4.09;56.11;102874.22;5026551;28;20229;-83
2023/04/04 09:56:03;;;;;;;2.27;1.20;;;;;;;4.15;56.35;102880.56;5027991;28;20670;-83
2023/04/04 09:58:34;;;;;;;3.80;1.60;;;;;;;4.29;55.12;102855.34;5026270;28;20395;-82
2023/04/04 10:01:02;;;;;;;8.93;1.90;;;;;;;4.39;54.44;102877.34;5026362;28;20202;-82
2023/04/04 10:03:30;;;;;;;1.60;1.20;;;;;;;4.36;53.64;102896.19;5026172;28;20260;-83
2023/04/04 10:05:59;;;;;;;2.60;1.90;;;;;;;4.47;54.10;102926.84;5025058;28;20720;-82
2023/04/04 10:08:27;;;;;;;1.77;1.40;;;;;;;4.57;54.26;102929.03;5027207;28;20246;-83
2023/04/04 10:10:59;;;;;;;2.40;1.50;;;;;;;4.61;53.68;102948.16;5027048;28;20892;-82
2023/04/04 10:13:27;;;;;;;1.77;1.20;;;;;;;4.63;53.41;102959.47;5027193;28;20198;-81
2023/04/04 10:15:55;;;;;;;3.30;1.60;;;;;;;4.64;53.76;102987.09;5025643;28;20230;-84
2023/04/04 10:18:24;;;;;;;1.90;1.50;;;;;;;4.55;53.92;102972.91;5029325;28;20661;-83
2023/04/04 10:20:51;;;;;;;3.53;1.83;;;;;;;4.42;52.81;102972.28;5026539;28;20252;-80
2023/04/04 10:23:18;;;;;;;2.03;1.70;;;;;;;4.55;54.24;102987.56;5026635;28;20305;-83
2023/04/04 10:25:45;;;;;;;3.20;2.30;;;;;;;4.64;54.39;102984.50;5025696;28;20513;-81
2023/04/04 10:28:13;;;;;;;1.97;1.53;;;;;;;4.87;52.06;102955.41;5026038;28;20220;-80
2023/04/04 10:30:43;;;;;;;2.87;1.80;;;;;;;5.00;53.17;102974.97;5029890;28;20206;-82
2023/04/04 10:33:20;;;;;;;1.50;1.40;;;;;;;5.18;51.89;102980.97;5025157;28;20205;-85
2023/04/04 10:35:52;;;;;;;1.60;1.37;;;;;;;5.22;49.36;103007.88;5026826;28;20221;-83
2023/04/04 10:38:24;;;;;;;2.33;1.80;;;;;;;5.17;52.36;103049.13;5023851;28;20234;-82
2023/04/04 10:40:53;;;;;;;2.20;1.70;;;;;;;5.18;51.95;103039.63;5025289;28;20241;-83
2023/04/04 10:43:27;;;;;;;3.43;2.00;;;;;;;5.20;51.47;103030.22;5025484;28;20623;-83
2023/04/04 10:45:56;;;;;;;2.00;1.80;;;;;;;5.30;51.84;103049.66;5025086;28;20223;-82
2023/04/04 10:48:24;;;;;;;1.77;1.50;;;;;;;5.40;49.74;103036.31;5026738;28;20253;-82
2023/04/04 10:50:51;;;;;;;4.03;1.90;;;;;;;5.45;50.86;103075.34;5025272;28;20211;-81
2023/04/04 10:53:18;;;;;;;3.00;1.90;;;;;;;5.36;50.36;103068.06;5025509;28;20252;-81
2023/04/04 10:55:45;;;;;;;2.20;2.00;;;;;;;5.28;51.15;103093.59;5022623;28;20269;-82
2023/04/04 10:58:12;;;;;;;2.63;2.43;;;;;;;5.30;51.69;103085.91;5023471;28;20285;-82
2023/04/04 11:00:51;;;;;;;3.33;2.80;;;;;;;5.49;53.88;103059.13;5025389;28;20229;-82
2023/04/04 11:03:18;;;;;;;4.43;2.73;;;;;;;5.49;50.72;102992.69;5025807;28;20248;-84
2023/04/04 11:05:46;;;;;;;2.73;2.57;;;;;;;5.06;49.87;103041.69;5025406;28;20267;-83
2023/04/04 11:08:17;;;;;;;2.53;2.33;;;;;;;5.33;51.26;103049.78;5022830;28;20314;-82
2023/04/04 11:10:45;;;;;;;3.10;2.20;;;;;;;5.55;49.48;103036.97;5026362;28;20203;-81
2023/04/04 11:13:17;;;;;;;2.30;2.10;;;;;;;5.74;48.86;103036.06;5027006;28;20195;-84
2023/04/04 11:15:53;;;;;;;4.80;3.20;;;;;;;5.70;49.67;103069.56;5026460;28;20218;-86
2023/04/04 11:18:20;;;;;;;3.27;2.60;;;;;;;5.81;50.83;103076.09;5026072;28;20577;-84
2023/04/04 11:20:48;;;;;;;3.47;3.17;;;;;;;5.90;49.82;103053.13;5024780;28;20238;-83
2023/04/04 11:23:18;;;;;;;3.20;3.00;;;;;;;6.02;48.38;103052.81;5025901;28;20202;-83
2023/04/04 11:25:50;;;;;;;3.77;3.33;;;;;;;6.33;49.66;103065.34;5022602;28;20229;-83
2023/04/04 11:28:26;;;;;;;3.30;3.00;;;;;;;6.47;46.86;103046.88;5019878;28;20214;-83
2023/04/04 11:31:24;;;;;;;3.60;3.30;;;;;;;6.64;46.84;103082.16;5021904;28;20704;-83
2023/04/04 11:33:55;;;;;;;2.97;2.77;;;;;;;6.93;47.31;103087.59;5026986;28;20203;-84
2023/04/04 11:36:50;;;;;;;2.80;2.60;;;;;;;7.89;46.14;103079.03;5021642;28;20640;-82
2023/04/04 11:39:24;;;;;;;3.10;2.90;;;;;;;9.48;43.72;103072.75;5024439;28;20254;-82
2023/04/04 11:41:53;;;;;;;3.00;2.77;;;;;;;11.77;40.48;103092.91;5022949;28;20553;-85